Monticello, Georgia
Current Conditions -  °F | °C
As of 1:55 PM on Friday 21 Nov 2014 (Local Time) from KCVC Reporting Station
Clear Clear  
Wind Chill: 64°   Ceiling: Unl
Heat Index: 64°   Visibility: 10mi
Dew Point: 34°   Wind: 3mph
Humidity: 32%   Direction: 20°NNE
Pressure: 30.34"   Gusts: NA
Location:  33.3°N, 83.68°W
Report Text: KCVC 211855Z AUTO 02003KT 10SM CLR 18/01 A3034 RMK AO2
Loading
Personal Weather Stations






























Interactive Weather Map New forecast layout! Learn more

10-Day Weather Forecast

Advertisements
Track Severe Weather on mobile